Time;durP1;ratioP1;P1;durP2;ratioP2;P2;SDS_P1;SDS_P2;PMS_P1;PMS_P2;Temp;Humidity;BMP_temperature;BMP_pressure;BME280_temperature;BME280_humidity;BME280_pressure;Samples;Min_cycle;Max_cycle;Signal;HPM_P1;HPM_P2
2024/03/09 06:44:37;;;;;;;33.65;14.20;;;;;;;4.48;86.92;95319.06;2076627;27;20568;-61
2024/03/09 06:45:40;;;;;;;30.40;15.43;;;;;;;4.61;86.32;95316.78;2072905;28;20191;-61
2024/03/09 06:53:06;;;;;;;29.90;13.85;;;;;;;5.35;82.54;95323.09;2115619;27;20960;-68
2024/03/09 06:56:35;;;;;;;30.95;14.15;;;;;;;6.19;79.16;95314.91;2083682;28;21054;-66
2024/03/09 06:57:37;;;;;;;32.80;15.05;;;;;;;6.12;79.87;95329.91;2081867;28;20201;-66
2024/03/09 07:00:35;;;;;;;31.42;14.55;;;;;;;5.99;80.73;95385.59;2083339;28;20560;-68
2024/03/09 07:01:38;;;;;;;27.40;13.38;;;;;;;6.15;80.12;95384.56;2088727;28;20196;-68
2024/03/09 07:02:42;;;;;;;26.38;13.40;;;;;;;6.49;79.84;95390.91;2085484;28;20650;-68
2024/03/09 07:05:10;;;;;;;25.77;13.13;;;;;;;6.49;78.11;95314.31;2099768;27;20559;-66
2024/03/09 07:06:12;;;;;;;25.92;12.65;;;;;;;6.64;77.55;95313.53;2093467;28;20755;-66
2024/03/09 07:07:13;;;;;;;30.25;14.05;;;;;;;6.51;77.36;95317.66;2091340;28;20246;-68
2024/03/09 07:08:16;;;;;;;22.05;12.68;;;;;;;6.51;77.36;95317.66;2090934;28;20283;-68
2024/03/09 07:09:19;;;;;;;26.52;13.93;;;;;;;6.68;77.48;95315.06;2084104;28;20221;-68
2024/03/09 07:10:21;;;;;;;24.77;12.50;;;;;;;6.69;76.73;95310.69;2077212;28;20200;-68
2024/03/09 07:11:23;;;;;;;29.13;14.35;;;;;;;6.91;76.15;95307.88;2077192;28;20276;-68
2024/03/09 07:12:25;;;;;;;25.90;13.70;;;;;;;7.02;75.96;95312.50;2074806;28;20255;-68
2024/03/09 07:13:26;;;;;;;25.42;12.85;;;;;;;7.05;75.78;95321.88;2082231;28;20201;-68
2024/03/09 07:14:28;;;;;;;27.33;13.73;;;;;;;7.11;75.77;95321.56;2073454;28;20229;-68
2024/03/09 07:15:30;;;;;;;27.35;15.38;;;;;;;7.30;75.89;95311.03;2075919;28;20203;-68
2024/03/09 07:16:32;;;;;;;26.50;13.52;;;;;;;7.36;74.95;95315.91;2072663;28;20278;-68
2024/03/09 07:17:34;;;;;;;27.13;14.68;;;;;;;7.61;74.94;95309.44;2070203;28;20359;-68
2024/03/09 07:18:36;;;;;;;25.83;14.25;;;;;;;7.92;76.07;95310.34;2068743;28;20208;-66
2024/03/09 07:19:38;;;;;;;21.45;13.82;;;;;;;8.61;71.82;95303.03;2067928;28;20220;-64
2024/03/09 07:20:39;;;;;;;20.65;11.73;;;;;;;8.63;70.57;95296.81;2067977;28;20202;-64
2024/03/09 07:21:41;;;;;;;22.10;12.05;;;;;;;8.95;70.90;95306.22;2067876;28;20198;-64
2024/03/09 07:22:43;;;;;;;26.05;12.65;;;;;;;9.32;69.40;95298.81;2070530;28;20198;-69
2024/03/09 07:23:45;;;;;;;37.85;19.02;;;;;;;8.88;69.71;95299.72;2072811;28;20206;-63
2024/03/09 07:24:46;;;;;;;48.05;29.35;;;;;;;8.88;69.60;95294.53;2071568;28;20226;-66
2024/03/09 07:25:49;;;;;;;79.35;38.28;;;;;;;9.16;68.58;95298.91;2069657;28;20202;-66
2024/03/09 07:26:50;;;;;;;36.53;19.67;;;;;;;8.74;69.04;95303.97;2069441;28;20190;-66
2024/03/09 07:27:56;;;;;;;23.17;12.93;;;;;;;8.77;69.98;95300.34;2068782;28;20220;-66
2024/03/09 07:28:58;;;;;;;28.58;14.15;;;;;;;8.88;69.79;95302.34;2072679;28;20194;-66
2024/03/09 07:30:02;;;;;;;24.73;13.18;;;;;;;9.17;69.66;95295.38;2070578;28;20245;-66
2024/03/09 07:31:05;;;;;;;21.85;12.38;;;;;;;9.07;68.35;95286.44;2072077;28;20214;-66
2024/03/09 07:32:06;;;;;;;25.33;13.40;;;;;;;9.10;68.38;95300.13;2073239;28;20194;-66
2024/03/09 07:33:12;;;;;;;23.67;13.65;;;;;;;9.76;68.17;95295.22;2071963;28;20198;-59
2024/03/09 07:34:16;;;;;;;22.83;12.43;;;;;;;9.82;67.23;95298.38;2071735;28;20283;-59
2024/03/09 07:35:19;;;;;;;24.30;12.50;;;;;;;10.11;65.86;95301.75;2069991;28;20194;-59
2024/03/09 07:36:21;;;;;;;20.50;11.48;;;;;;;10.33;65.23;95302.97;2070000;28;20225;-59
2024/03/09 07:37:22;;;;;;;21.90;12.75;;;;;;;10.40;64.88;95299.88;2071652;28;20255;-59
2024/03/09 07:38:25;;;;;;;21.80;12.32;;;;;;;10.57;65.07;95298.75;2071815;28;20561;-59
2024/03/09 07:39:30;;;;;;;19.60;11.73;;;;;;;10.75;64.06;95290.63;2070459;28;20231;-61
2024/03/09 07:40:33;;;;;;;23.10;13.10;;;;;;;10.78;64.76;95301.72;2069477;28;20206;-60
2024/03/09 07:41:37;;;;;;;21.42;12.18;;;;;;;10.92;63.75;95308.63;2068670;28;20205;-60
2024/03/09 07:42:40;;;;;;;23.55;12.90;;;;;;;10.76;63.71;95298.38;2069920;28;20203;-60
2024/03/09 07:43:42;;;;;;;18.77;12.70;;;;;;;10.77;63.76;95302.66;2070715;28;20202;-59
2024/03/09 07:44:43;;;;;;;28.00;14.25;;;;;;;10.65;63.88;95297.41;2068139;28;20304;-62
2024/03/09 07:45:46;;;;;;;21.75;13.13;;;;;;;10.42;64.45;95303.22;2072464;28;20252;-62
2024/03/09 07:46:47;;;;;;;22.35;13.27;;;;;;;10.39;63.35;95305.19;2071963;28;20207;-62
2024/03/09 07:47:49;;;;;;;28.45;12.57;;;;;;;11.44;62.27;95296.38;2070226;28;20195;-62
2024/03/09 07:48:51;;;;;;;31.23;20.00;;;;;;;11.53;61.83;95292.31;2070143;28;20679;-61
2024/03/09 07:49:52;;;;;;;26.45;14.27;;;;;;;11.77;61.02;95300.19;2071140;28;20224;-59
2024/03/09 07:50:55;;;;;;;40.17;24.85;;;;;;;11.75;61.38;95303.88;2072787;28;20207;-58
2024/03/09 07:51:57;;;;;;;33.30;19.38;;;;;;;11.72;61.38;95298.88;2068954;28;20291;-60
2024/03/09 07:52:58;;;;;;;20.48;12.30;;;;;;;11.51;61.82;95309.03;2068833;28;20203;-60
2024/03/09 07:54:00;;;;;;;21.98;13.20;;;;;;;11.49;62.00;95303.06;2070965;28;20281;-61
2024/03/09 07:55:01;;;;;;;20.08;12.63;;;;;;;12.00;60.92;95305.59;2073043;28;20194;-60
2024/03/09 07:56:03;;;;;;;22.15;13.07;;;;;;;12.21;60.96;95307.63;2069726;28;20200;-60
2024/03/09 07:57:08;;;;;;;20.02;12.73;;;;;;;12.28;60.20;95295.75;2071401;28;20206;-60
2024/03/09 07:58:10;;;;;;;29.00;13.13;;;;;;;12.83;59.47;95301.28;2071140;28;20204;-60
2024/03/09 07:59:25;;;;;;;21.08;12.25;;;;;;;12.99;57.93;95306.22;2072367;28;20229;-59
2024/03/09 08:00:27;;;;;;;21.02;11.75;;;;;;;12.70;57.76;95292.72;2072688;28;20261;-60
2024/03/09 08:01:29;;;;;;;18.48;11.13;;;;;;;14.09;55.26;95304.81;2072080;28;20233;-59
2024/03/09 08:02:32;;;;;;;21.50;12.43;;;;;;;13.33;56.28;95308.91;2068087;28;20203;-59
2024/03/09 08:03:33;;;;;;;19.45;11.85;;;;;;;12.35;58.38;95317.91;2066832;28;20207;-60
2024/03/09 08:04:35;;;;;;;22.10;13.13;;;;;;;12.89;57.95;95310.50;2066916;28;20862;-60
2024/03/09 08:05:38;;;;;;;16.92;11.52;;;;;;;13.53;56.49;95309.16;2072123;28;20304;-59
2024/03/09 08:06:43;;;;;;;20.23;13.32;;;;;;;12.75;57.93;95311.53;2068969;28;20264;-60
2024/03/09 08:07:45;;;;;;;21.52;11.48;;;;;;;12.39;57.79;95308.03;2068947;28;20289;-59
2024/03/09 08:08:48;;;;;;;21.00;12.52;;;;;;;12.27;58.87;95296.69;2069458;28;20702;-59
2024/03/09 08:09:50;;;;;;;20.08;12.32;;;;;;;12.32;59.94;95301.59;2068097;28;20276;-59
2024/03/09 08:10:52;;;;;;;18.73;11.98;;;;;;;12.01;59.43;95307.28;2067356;28;20257;-59
2024/03/09 08:11:54;;;;;;;21.42;11.13;;;;;;;12.53;58.60;95294.78;2066218;28;20206;-59
2024/03/09 08:12:56;;;;;;;17.88;10.93;;;;;;;13.11;55.70;95288.72;2068100;28;20209;-60
2024/03/09 08:13:57;;;;;;;18.52;11.18;;;;;;;13.42;56.30;95296.06;2067059;28;20281;-59
2024/03/09 08:15:00;;;;;;;19.98;10.75;;;;;;;13.12;57.11;95310.56;2069603;28;20231;-59
2024/03/09 08:16:02;;;;;;;28.27;12.15;;;;;;;12.23;58.23;95303.13;2067711;28;20575;-59
2024/03/09 08:17:05;;;;;;;18.20;11.45;;;;;;;11.63;60.85;95315.19;2065891;28;20203;-58
2024/03/09 08:18:07;;;;;;;19.90;11.52;;;;;;;12.98;58.42;95317.66;2067969;28;20218;-59
2024/03/09 08:19:09;;;;;;;19.10;11.60;;;;;;;13.13;58.13;95317.44;2065705;28;20218;-60
2024/03/09 08:20:21;;;;;;;23.92;13.40;;;;;;;13.49;56.34;95318.22;2065347;28;20245;-59
2024/03/09 08:21:24;;;;;;;19.63;11.93;;;;;;;13.65;56.60;95320.47;2066083;28;20211;-59
2024/03/09 08:22:27;;;;;;;19.52;10.40;;;;;;;14.11;55.70;95316.88;2066194;28;20315;-59
2024/03/09 08:23:28;;;;;;;21.70;11.27;;;;;;;11.93;58.11;95307.78;2063539;28;20199;-59
2024/03/09 08:24:30;;;;;;;20.25;11.50;;;;;;;12.86;57.97;95311.56;2062099;28;20227;-59
2024/03/09 08:25:31;;;;;;;18.05;11.40;;;;;;;13.26;57.58;95307.69;2062993;28;20270;-59
2024/03/09 08:26:33;;;;;;;19.08;11.38;;;;;;;14.04;55.33;95310.44;2063940;28;20214;-60
2024/03/09 08:27:34;;;;;;;23.95;12.20;;;;;;;14.07;55.35;95304.94;2065913;28;20219;-59
2024/03/09 08:28:36;;;;;;;23.55;11.18;;;;;;;14.43;52.98;95302.91;2065954;28;20676;-59
2024/03/09 08:29:37;;;;;;;19.30;10.98;;;;;;;14.72;54.03;95310.25;2065410;28;20795;-59
2024/03/09 08:30:40;;;;;;;18.40;11.05;;;;;;;13.49;55.47;95307.75;2058367;28;20207;-59
2024/03/09 08:31:43;;;;;;;23.50;11.15;;;;;;;12.88;56.58;95312.25;2065999;28;20205;-59
2024/03/09 08:32:48;;;;;;;21.45;11.93;;;;;;;12.94;58.42;95300.50;2066305;28;20211;-59
2024/03/09 08:33:51;;;;;;;19.75;10.90;;;;;;;13.09;57.18;95313.38;2063302;28;20218;-59
2024/03/09 08:34:52;;;;;;;18.17;11.60;;;;;;;13.72;56.53;95319.06;2065983;28;20325;-59
2024/03/09 08:35:58;;;;;;;18.92;10.75;;;;;;;13.91;55.92;95320.25;2065476;28;20203;-59
2024/03/09 08:36:59;;;;;;;19.38;11.10;;;;;;;13.91;54.87;95323.69;2070511;28;20202;-59
2024/03/09 08:38:01;;;;;;;19.90;11.52;;;;;;;14.33;53.83;95325.63;2070174;28;20812;-60
2024/03/09 08:39:02;;;;;;;18.80;10.13;;;;;;;14.97;54.06;95313.44;2068105;28;20286;-60
2024/03/09 08:40:08;;;;;;;31.33;19.13;;;;;;;14.40;55.29;95320.72;2065602;28;20198;-63
2024/03/09 08:41:10;;;;;;;18.88;11.00;;;;;;;14.49;54.19;95328.69;2059533;28;20199;-60
2024/03/09 08:42:12;;;;;;;90.03;50.70;;;;;;;14.66;53.08;95316.81;2066534;28;20198;-62
2024/03/09 08:43:13;;;;;;;22.45;11.48;;;;;;;14.85;52.52;95313.53;2064943;28;20190;-60
2024/03/09 08:44:15;;;;;;;21.20;10.73;;;;;;;15.49;52.44;95319.59;2066129;28;20238;-60
2024/03/09 08:45:16;;;;;;;25.27;11.63;;;;;;;15.31;51.70;95319.34;2067215;28;20191;-60
2024/03/09 08:46:18;;;;;;;17.40;9.52;;;;;;;15.49;51.06;95319.59;2068512;28;20250;-60
2024/03/09 08:47:19;;;;;;;26.38;11.25;;;;;;;14.68;52.76;95321.97;2063155;28;20550;-60
2024/03/09 08:48:20;;;;;;;18.05;10.68;;;;;;;14.57;53.30;95322.81;2066063;28;20633;-60
2024/03/09 08:49:22;;;;;;;17.05;10.93;;;;;;;14.63;53.86;95317.06;2065946;28;20260;-60
2024/03/09 08:50:26;;;;;;;19.02;11.50;;;;;;;14.72;53.94;95306.78;2065203;28;20196;-60
2024/03/09 08:51:28;;;;;;;17.40;10.40;;;;;;;15.26;53.31;95320.69;2064392;28;20199;-60
2024/03/09 08:52:32;;;;;;;16.10;10.32;;;;;;;15.58;51.96;95307.44;2064922;28;20199;-64
2024/03/09 08:53:35;;;;;;;16.35;10.43;;;;;;;15.74;52.14;95317.47;2063199;28;20195;-64
2024/03/09 08:54:41;;;;;;;15.40;10.57;;;;;;;15.23;51.26;95311.28;2064343;28;20309;-64
2024/03/09 08:55:45;;;;;;;16.88;9.93;;;;;;;14.47;53.12;95298.25;2061861;28;20199;-64
2024/03/09 08:56:47;;;;;;;25.98;11.05;;;;;;;14.52;53.48;95312.69;2063462;28;20199;-64
2024/03/09 08:57:49;;;;;;;22.80;11.55;;;;;;;15.25;53.50;95314.63;2064860;28;20206;-64
2024/03/09 08:58:51;;;;;;;15.25;9.27;;;;;;;15.18;52.19;95305.56;2065250;28;20206;-64
2024/03/09 08:59:59;;;;;;;18.85;10.02;;;;;;;15.89;51.07;95302.16;2065668;28;20211;-64
2024/03/09 09:01:01;;;;;;;21.10;10.77;;;;;;;13.92;53.74;95309.63;2066087;28;20203;-64
2024/03/09 09:02:03;;;;;;;20.10;10.50;;;;;;;13.74;54.83;95295.31;2065501;28;20273;-64
2024/03/09 09:03:05;;;;;;;24.40;10.52;;;;;;;14.10;54.85;95309.13;2063964;28;20663;-60
2024/03/09 09:04:07;;;;;;;16.52;10.38;;;;;;;13.65;54.41;95289.84;2062601;28;20737;-60
2024/03/09 09:05:11;;;;;;;18.15;10.65;;;;;;;14.57;54.12;95303.59;2062459;28;20206;-59
2024/03/09 09:06:17;;;;;;;16.08;9.48;;;;;;;14.09;54.95;95310.06;2065385;28;20227;-59
2024/03/09 09:07:19;;;;;;;17.50;10.50;;;;;;;14.07;55.25;95293.59;2063466;28;20290;-59
2024/03/09 09:08:27;;;;;;;19.67;9.95;;;;;;;14.33;53.94;95278.38;2061552;28;20721;-59
2024/03/09 09:09:31;;;;;;;19.40;10.05;;;;;;;13.37;54.74;95291.19;2061523;28;20236;-60
2024/03/09 09:10:35;;;;;;;18.58;10.57;;;;;;;15.07;52.98;95289.88;2063576;28;20211;-59
2024/03/09 09:11:37;;;;;;;17.63;10.43;;;;;;;15.02;53.97;95291.09;2065697;28;20294;-60
2024/03/09 09:12:43;;;;;;;22.77;11.50;;;;;;;15.21;52.34;95293.97;2068702;28;20213;-60
2024/03/09 09:13:45;;;;;;;17.67;10.57;;;;;;;16.11;51.34;95284.47;2066755;28;20206;-59
2024/03/09 09:14:47;;;;;;;19.38;9.93;;;;;;;15.47;50.57;95258.38;2065841;28;20253;-59
2024/03/09 09:15:49;;;;;;;16.20;9.60;;;;;;;14.44;52.65;95285.41;2067206;28;20191;-59
2024/03/09 09:16:53;;;;;;;14.52;9.15;;;;;;;13.79;55.13;95283.53;2065950;28;20194;-59
2024/03/09 09:17:57;;;;;;;19.75;10.02;;;;;;;15.11;51.81;95278.97;2066958;28;20290;-62
2024/03/09 09:18:59;;;;;;;17.33;9.80;;;;;;;15.09;52.35;95280.06;2063429;28;20207;-64
2024/03/09 09:20:01;;;;;;;50.85;29.58;;;;;;;14.75;52.44;95283.69;2067178;28;20202;-64
2024/03/09 09:21:05;;;;;;;17.13;8.77;;;;;;;15.25;52.26;95287.47;2068089;28;20203;-62
2024/03/09 09:22:10;;;;;;;15.73;9.18;;;;;;;14.95;52.42;95286.47;2067145;28;20244;-61
2024/03/09 09:23:12;;;;;;;18.92;10.15;;;;;;;15.08;52.57;95281.84;2066866;28;20415;-62
2024/03/09 09:24:13;;;;;;;27.77;10.00;;;;;;;14.82;52.73;95281.41;2068199;28;21258;-62
2024/03/09 09:25:16;;;;;;;15.90;9.68;;;;;;;14.63;52.62;95279.47;2068809;28;20658;-62
2024/03/09 09:26:18;;;;;;;20.20;10.48;;;;;;;14.83;53.48;95270.78;2067834;28;20256;-67
2024/03/09 09:27:20;;;;;;;17.05;9.35;;;;;;;15.45;52.41;95267.34;2063640;28;20663;-67
2024/03/09 09:28:21;;;;;;;19.85;9.60;;;;;;;15.47;51.87;95268.88;2065794;28;20206;-68
2024/03/09 09:29:29;;;;;;;15.45;10.05;;;;;;;15.40;52.28;95236.22;2066578;28;20318;-68
2024/03/09 09:30:40;;;;;;;15.50;9.23;;;;;;;14.46;52.14;95272.94;2064970;28;20479;-67
2024/03/09 09:31:42;;;;;;;15.48;9.82;;;;;;;15.53;51.46;95264.91;2066067;28;20260;-62
2024/03/09 09:32:44;;;;;;;22.48;9.73;;;;;;;15.30;52.24;95254.56;2063273;28;20689;-63
2024/03/09 09:33:45;;;;;;;16.63;9.80;;;;;;;16.14;50.82;95258.72;2064372;28;20206;-62
2024/03/09 09:34:47;;;;;;;17.63;9.93;;;;;;;15.22;50.58;95254.38;2062672;28;20230;-62
2024/03/09 09:35:51;;;;;;;17.15;10.27;;;;;;;14.73;52.33;95233.09;2065406;28;20907;-62
2024/03/09 09:36:53;;;;;;;19.88;10.77;;;;;;;14.69;52.39;95263.22;2062154;28;20202;-62
2024/03/09 09:37:57;;;;;;;16.52;9.55;;;;;;;14.84;52.23;95261.94;2063104;28;20203;-62
2024/03/09 09:38:59;;;;;;;19.45;10.10;;;;;;;14.41;52.69;95260.22;2065088;28;20207;-62
2024/03/09 09:40:04;;;;;;;16.20;9.98;;;;;;;14.50;53.15;95253.34;2065652;28;20195;-62
2024/03/09 09:41:08;;;;;;;25.30;10.98;;;;;;;14.76;52.87;95253.03;2059494;28;20389;-62
2024/03/09 09:42:09;;;;;;;15.27;9.18;;;;;;;15.62;50.83;95247.50;2064562;28;20269;-62
2024/03/09 09:43:12;;;;;;;17.10;10.40;;;;;;;16.02;50.96;95246.63;2064216;28;20230;-62
2024/03/09 09:44:15;;;;;;;15.80;9.70;;;;;;;15.07;50.99;95253.06;2061777;28;20285;-62
2024/03/09 09:45:22;;;;;;;21.02;11.23;;;;;;;14.43;54.07;95250.41;2063243;28;20263;-62
2024/03/09 09:46:25;;;;;;;22.15;10.23;;;;;;;15.82;52.49;95233.44;2064750;28;20246;-62
2024/03/09 09:47:28;;;;;;;20.23;9.98;;;;;;;15.75;50.57;95242.81;2065581;28;20353;-62
2024/03/09 09:48:37;;;;;;;19.83;10.57;;;;;;;14.68;52.58;95240.53;2066196;28;20199;-62
2024/03/09 09:49:40;;;;;;;19.15;11.23;;;;;;;14.98;53.71;95245.00;2061988;28;20223;-62
2024/03/09 09:50:41;;;;;;;18.90;10.55;;;;;;;15.88;51.66;95241.78;2061705;28;20313;-63
2024/03/09 09:51:45;;;;;;;20.90;10.48;;;;;;;16.10;50.06;95228.38;2062662;28;20738;-62
2024/03/09 09:52:50;;;;;;;17.80;10.50;;;;;;;16.26;51.22;95238.34;2062372;28;20210;-62
2024/03/09 09:53:54;;;;;;;19.30;11.63;;;;;;;16.66;49.52;95241.81;2061598;28;20199;-62
2024/03/09 09:54:56;;;;;;;16.30;9.50;;;;;;;17.06;48.90;95238.16;2066191;28;20226;-63
2024/03/09 09:55:59;;;;;;;18.40;10.20;;;;;;;17.28;48.55;95237.00;2065903;28;20851;-63
2024/03/09 09:57:01;;;;;;;19.50;10.20;;;;;;;17.38;48.72;95229.06;2064244;28;20203;-63
2024/03/09 09:58:03;;;;;;;17.65;10.95;;;;;;;16.92;48.92;95236.81;2073917;28;20279;-62
2024/03/09 09:59:04;;;;;;;18.23;10.73;;;;;;;15.23;51.43;95234.19;2071887;28;20202;-62
2024/03/09 10:00:06;;;;;;;20.67;10.57;;;;;;;15.09;52.23;95230.94;2064655;28;20256;-62
2024/03/09 10:01:08;;;;;;;19.17;11.18;;;;;;;14.64;53.43;95239.06;2064836;28;20209;-62
2024/03/09 10:02:11;;;;;;;18.35;9.85;;;;;;;14.19;54.56;95243.59;2061493;28;20691;-62
2024/03/09 10:03:12;;;;;;;20.58;11.05;;;;;;;15.06;53.42;95241.72;2060894;28;20255;-62
2024/03/09 10:04:17;;;;;;;18.85;10.57;;;;;;;15.57;52.62;95234.75;2061354;28;20281;-62
2024/03/09 10:05:19;;;;;;;19.10;10.75;;;;;;;16.04;51.38;95230.72;2060622;28;20209;-62
2024/03/09 10:06:22;;;;;;;19.15;11.18;;;;;;;16.26;51.02;95234.88;2066090;28;20215;-62
2024/03/09 10:07:24;;;;;;;16.80;10.15;;;;;;;16.37;50.31;95229.50;2065021;28;20850;-63
2024/03/09 10:08:27;;;;;;;19.85;10.50;;;;;;;17.16;49.56;95232.03;2068041;28;20776;-62
2024/03/09 10:09:28;;;;;;;27.33;10.00;;;;;;;17.01;50.28;95215.84;2057497;28;20238;-63
2024/03/09 10:10:31;;;;;;;21.88;11.00;;;;;;;16.07;51.08;95222.53;2064557;28;20194;-63
2024/03/09 10:11:33;;;;;;;22.20;10.80;;;;;;;16.81;50.50;95223.75;2067264;28;20795;-63
2024/03/09 10:12:35;;;;;;;16.50;10.80;;;;;;;18.12;48.32;95229.09;2067355;28;20194;-63
2024/03/09 10:13:36;;;;;;;17.27;10.63;;;;;;;18.06;47.65;95222.59;2075482;28;20202;-63
2024/03/09 10:14:41;;;;;;;17.90;10.90;;;;;;;18.63;46.67;95220.59;2066891;28;20666;-63
2024/03/09 10:15:45;;;;;;;20.42;11.57;;;;;;;17.44;49.48;95212.63;2063961;28;20233;-63
2024/03/09 10:16:47;;;;;;;22.23;10.85;;;;;;;17.70;49.03;95219.03;2064869;28;20287;-63
2024/03/09 10:17:49;;;;;;;19.75;11.60;;;;;;;17.66;49.46;95223.78;2063720;28;20199;-63
2024/03/09 10:18:50;;;;;;;18.65;10.95;;;;;;;18.68;48.03;95215.72;2064321;28;20214;-63
2024/03/09 10:19:52;;;;;;;21.38;10.93;;;;;;;19.56;46.66;95210.28;2064051;28;20224;-63
2024/03/09 10:20:58;;;;;;;19.75;11.57;;;;;;;18.80;46.31;95217.13;2065549;28;20538;-63
2024/03/09 10:21:59;;;;;;;20.25;10.18;;;;;;;20.06;44.89;95205.19;2066699;28;20200;-63
2024/03/09 10:23:08;;;;;;;18.17;9.48;;;;;;;19.29;45.48;95205.19;2063543;28;20741;-62
2024/03/09 10:24:10;;;;;;;15.98;9.68;;;;;;;19.82;46.09;95216.50;2060944;28;20209;-62
2024/03/09 10:25:24;;;;;;;19.70;11.95;;;;;;;19.36;46.03;95212.38;2061389;28;20201;-62
2024/03/09 10:26:26;;;;;;;18.15;10.48;;;;;;;18.73;46.76;95202.88;2065051;28;20578;-63
2024/03/09 10:27:28;;;;;;;15.70;10.25;;;;;;;19.62;45.57;95187.66;2063255;28;20687;-63
2024/03/09 10:28:31;;;;;;;16.58;9.77;;;;;;;18.93;46.70;95214.09;2062773;28;20669;-63
2024/03/09 10:29:33;;;;;;;16.80;10.00;;;;;;;18.35;48.16;95202.25;2063115;28;20233;-63
2024/03/09 10:30:37;;;;;;;14.85;9.70;;;;;;;20.18;46.32;95192.47;2063783;28;20275;-63
2024/03/09 10:31:42;;;;;;;21.15;10.80;;;;;;;20.41;44.58;95179.41;2066308;28;20206;-63
2024/03/09 10:32:44;;;;;;;16.58;9.20;;;;;;;20.62;43.74;95191.31;2064882;28;20199;-63
2024/03/09 10:33:52;;;;;;;13.77;8.20;;;;;;;20.08;44.24;95186.50;2060155;28;20206;-63
2024/03/09 10:34:54;;;;;;;11.90;8.00;;;;;;;20.94;44.53;95177.25;2066240;28;20226;-63
2024/03/09 10:35:57;;;;;;;12.45;7.55;;;;;;;20.61;44.03;95169.28;2066608;28;20672;-63
2024/03/09 10:37:03;;;;;;;12.95;7.60;;;;;;;20.68;42.62;95175.59;2063156;28;20250;-63
2024/03/09 10:38:07;;;;;;;12.32;7.28;;;;;;;19.42;45.16;95177.31;2065071;28;21028;-63
2024/03/09 10:39:09;;;;;;;11.57;7.10;;;;;;;20.08;43.98;95175.91;2063339;28;20807;-67
2024/03/09 10:40:14;;;;;;;14.25;6.80;;;;;;;19.76;44.22;95172.97;2057160;28;20576;-68
2024/03/09 10:41:16;;;;;;;10.40;6.78;;;;;;;18.38;45.78;95178.97;2062972;28;20606;-68
2024/03/09 10:42:20;;;;;;;15.75;8.27;;;;;;;19.59;45.80;95164.13;2065120;28;20207;-68
2024/03/09 10:43:22;;;;;;;14.07;8.32;;;;;;;19.36;44.44;95164.75;2064516;28;20198;-67
2024/03/09 10:44:24;;;;;;;13.70;8.48;;;;;;;19.25;46.00;95165.84;2064331;28;20314;-68
2024/03/09 10:45:29;;;;;;;12.77;8.25;;;;;;;20.74;44.05;95157.38;2063655;28;20293;-68
2024/03/09 10:46:36;;;;;;;13.80;7.88;;;;;;;18.72;45.61;95164.19;2060942;28;20205;-68
2024/03/09 10:47:46;;;;;;;10.48;7.35;;;;;;;20.05;45.02;95150.56;2064094;28;20209;-69
2024/03/09 10:48:53;;;;;;;11.65;6.55;;;;;;;21.45;42.55;95150.38;2066121;28;20733;-69
2024/03/09 10:49:59;;;;;;;10.98;6.78;;;;;;;21.85;42.19;95156.53;2064640;28;20233;-69
2024/03/09 10:51:19;;;;;;;13.40;7.53;;;;;;;19.23;43.90;95156.41;2066504;28;20606;-69
2024/03/09 10:52:27;;;;;;;14.80;8.05;;;;;;;19.90;43.74;95163.63;2061878;28;20256;-69
2024/03/09 10:53:55;;;;;;;13.43;8.43;;;;;;;19.93;42.61;95162.47;2072470;28;20199;-69
2024/03/09 10:55:05;;;;;;;11.32;7.05;;;;;;;18.92;44.00;95159.56;2067791;28;20284;-68
2024/03/09 10:56:23;;;;;;;10.88;7.47;;;;;;;18.92;44.00;95159.56;2064773;28;20217;-69
2024/03/09 10:57:29;;;;;;;13.55;7.95;;;;;;;19.49;45.12;95163.44;2065591;28;20612;-69
2024/03/09 10:58:32;;;;;;;13.70;7.90;;;;;;;19.45;44.93;95157.63;2071575;28;20246;-69
2024/03/09 10:59:37;;;;;;;15.02;7.97;;;;;;;19.92;44.48;95164.25;2073700;28;20235;-69
2024/03/09 11:00:39;;;;;;;13.13;8.50;;;;;;;21.00;43.44;95155.34;2066447;28;20201;-68
2024/03/09 11:01:41;;;;;;;12.90;7.75;;;;;;;20.45;42.08;95154.22;2068828;28;20202;-68
2024/03/09 11:02:46;;;;;;;12.27;6.88;;;;;;;19.07;43.99;95149.19;2062252;28;20210;-69
2024/03/09 11:03:52;;;;;;;15.57;7.00;;;;;;;18.26;46.80;95154.59;2062064;28;20207;-68
2024/03/09 11:04:55;;;;;;;12.65;7.80;;;;;;;18.99;45.58;95154.47;2061051;28;20725;-68
2024/03/09 11:05:57;;;;;;;19.88;7.82;;;;;;;20.17;43.72;95149.22;2063202;28;20209;-69
2024/03/09 11:07:00;;;;;;;16.67;7.82;;;;;;;20.53;42.63;95145.41;2064107;28;20734;-68
2024/03/09 11:08:02;;;;;;;12.30;7.72;;;;;;;21.60;41.93;95141.69;2060516;28;20203;-68
2024/03/09 11:09:06;;;;;;;13.82;6.75;;;;;;;22.20;41.19;95144.69;2056545;28;20203;-68
2024/03/09 11:10:08;;;;;;;12.32;7.35;;;;;;;22.64;40.82;95141.38;2064994;28;20198;-69
2024/03/09 11:11:13;;;;;;;10.23;5.68;;;;;;;22.20;39.57;95134.88;2064244;28;20203;-68
2024/03/09 11:12:16;;;;;;;8.90;5.78;;;;;;;21.38;41.41;95136.13;2065606;28;20282;-70
2024/03/09 11:13:18;;;;;;;21.77;12.93;;;;;;;22.16;40.73;95128.25;2066361;28;20229;-66
2024/03/09 11:14:22;;;;;;;47.25;29.98;;;;;;;22.16;40.61;95129.06;2063391;28;20763;-67
2024/03/09 11:15:34;;;;;;;7.43;5.15;;;;;;;22.06;39.92;95136.47;2064044;28;20653;-70
2024/03/09 11:16:36;;;;;;;12.50;3.95;;;;;;;19.00;42.58;95146.38;2065120;28;20207;-66
2024/03/09 11:17:42;;;;;;;7.78;3.80;;;;;;;17.54;43.94;95138.69;2067577;28;20350;-66
2024/03/09 11:18:44;;;;;;;6.75;3.70;;;;;;;18.90;43.49;95129.78;2064961;28;20210;-66
2024/03/09 11:20:04;;;;;;;7.30;4.25;;;;;;;20.38;41.39;95127.53;2064630;28;20865;-66
2024/03/09 11:21:07;;;;;;;9.15;4.38;;;;;;;18.89;42.61;95128.94;2067424;28;20259;-66
2024/03/09 11:22:09;;;;;;;12.70;5.15;;;;;;;18.85;43.92;95129.41;2065095;28;20200;-66
2024/03/09 11:23:13;;;;;;;10.82;5.00;;;;;;;18.67;43.06;95135.56;2065788;28;20197;-66
2024/03/09 11:24:15;;;;;;;8.93;4.93;;;;;;;18.99;44.11;95133.31;2065460;28;20246;-66
2024/03/09 11:25:51;;;;;;;9.25;5.00;;;;;;;18.18;44.65;95136.06;2067544;28;20200;-66
2024/03/09 11:26:52;;;;;;;9.05;3.85;;;;;;;19.45;44.26;95133.00;2062663;28;20687;-62
2024/03/09 11:27:56;;;;;;;6.20;3.58;;;;;;;21.14;41.65;95121.13;2065043;28;20536;-62
2024/03/09 11:28:58;;;;;;;7.13;4.00;;;;;;;21.14;41.65;95121.13;2064151;28;20739;-62
2024/03/09 11:30:09;;;;;;;5.72;3.35;;;;;;;20.15;42.26;95111.50;2067014;28;20203;-62
2024/03/09 11:31:11;;;;;;;5.97;3.22;;;;;;;19.72;41.24;95116.88;2065798;28;20198;-65
2024/03/09 11:32:15;;;;;;;3.90;2.45;;;;;;;20.82;40.88;95129.03;2062182;28;20306;-65
2024/03/09 11:33:20;;;;;;;6.10;3.30;;;;;;;20.20;40.09;95129.53;2063601;28;20329;-65
2024/03/09 11:34:22;;;;;;;4.70;2.80;;;;;;;19.12;41.19;95128.41;2064320;28;20241;-66
2024/03/09 11:35:32;;;;;;;5.63;2.85;;;;;;;18.30;43.55;95135.78;2061964;28;20199;-66
2024/03/09 11:36:45;;;;;;;7.25;3.33;;;;;;;17.29;42.69;95137.56;2064418;28;20195;-66
2024/03/09 11:37:52;;;;;;;5.38;3.42;;;;;;;-145.49;100.00;55703.94;2064768;28;20412;-67
2024/03/09 11:38:57;;;;;;;6.55;3.30;;;;;;;-145.49;100.00;55703.94;2065846;28;20384;-67
2024/03/09 11:39:58;;;;;;;6.40;2.90;;;;;;;16.11;44.16;95097.53;2067749;28;20227;-67
2024/03/09 11:41:00;;;;;;;4.78;2.90;;;;;;;18.42;42.11;95116.06;2062505;28;20211;-62
2024/03/09 11:42:08;;;;;;;5.40;2.63;;;;;;;17.43;43.50;95133.63;2064480;28;20210;-63
2024/03/09 11:43:14;;;;;;;5.57;2.45;;;;;;;18.07;42.11;95123.91;2063996;28;20286;-63
2024/03/09 11:44:18;;;;;;;6.80;3.60;;;;;;;17.10;42.61;95112.13;2061076;28;20230;-62
2024/03/09 11:45:21;;;;;;;11.75;3.20;;;;;;;16.55;43.46;95118.13;2061520;28;20202;-62
2024/03/09 11:46:27;;;;;;;7.43;3.10;;;;;;;15.89;44.95;95114.47;2066643;28;20195;-62
2024/03/09 11:47:29;;;;;;;8.82;3.85;;;;;;;15.75;44.10;95105.97;2067131;28;20214;-59
2024/03/09 11:48:30;;;;;;;5.43;2.70;;;;;;;15.71;45.07;95111.66;2063607;28;20203;-59
2024/03/09 11:49:34;;;;;;;6.25;3.08;;;;;;;16.09;44.63;95100.31;2061826;28;20227;-59
2024/03/09 11:50:40;;;;;;;7.10;3.80;;;;;;;17.31;43.37;95088.16;2062308;28;20283;-61